createdAt,value
2023-09-06T00:00:26.317Z,14.6
2023-09-06T00:06:20.839Z,14.4
2023-09-06T00:12:13.053Z,14.3
2023-09-06T00:18:05.807Z,14.2
2023-09-06T00:23:58.312Z,14
2023-09-06T00:29:50.453Z,13.9
2023-09-06T00:35:43.045Z,13.8
2023-09-06T00:41:36.169Z,13.7
2023-09-06T00:47:27.991Z,13.6
2023-09-06T00:53:19.785Z,13.6
2023-09-06T00:59:11.491Z,13.5
2023-09-06T01:05:05.175Z,13.5
2023-09-06T01:10:56.311Z,13.4
2023-09-06T01:16:48.788Z,13.4
2023-09-06T01:22:41.388Z,13.5
2023-09-06T01:28:33.690Z,13.6
2023-09-06T01:34:27.584Z,13.6
2023-09-06T01:40:19.215Z,13.8
2023-09-06T01:46:11.183Z,13.8
2023-09-06T01:52:04.024Z,13.9
2023-09-06T01:57:55.548Z,13.9
2023-09-06T02:03:17.206Z,13.9
2023-09-06T02:09:10.072Z,14
2023-09-06T02:15:01.777Z,14
2023-09-06T02:20:39.320Z,14.1
2023-09-06T02:26:31.381Z,14.1
2023-09-06T02:32:23.319Z,14.1
2023-09-06T02:38:14.556Z,14.2
2023-09-06T02:44:07.768Z,14.2
2023-09-06T02:49:59.987Z,14.2
2023-09-06T02:55:52.446Z,14.2
2023-09-06T03:01:45.464Z,14.1
2023-09-06T03:07:37.490Z,14.1
2023-09-06T03:13:29.652Z,14
2023-09-06T03:19:24.107Z,14
2023-09-06T03:25:15.346Z,14
2023-09-06T03:31:07.595Z,14
2023-09-06T03:37:00.572Z,14
2023-09-06T03:42:53.454Z,14.1
2023-09-06T03:48:46.843Z,14.1
2023-09-06T03:54:24.485Z,14.2
2023-09-06T04:00:16.229Z,14.3
2023-09-06T04:06:10.555Z,14.3
2023-09-06T04:12:05.385Z,14.4
2023-09-06T04:17:57.923Z,14.5
2023-09-06T04:23:49.542Z,14.6
2023-09-06T04:29:42.640Z,14.8
2023-09-06T04:35:34.783Z,15
2023-09-06T04:41:26.101Z,15.3
2023-09-06T04:47:18.892Z,15.6
2023-09-06T04:52:59.825Z,16.1
2023-09-06T04:58:52.205Z,16.7
2023-09-06T05:04:45.668Z,17.3
2023-09-06T05:10:37.666Z,17.9
2023-09-06T05:16:29.908Z,18.3
2023-09-06T05:22:22.649Z,18.6
2023-09-06T05:27:58.446Z,19.1
2023-09-06T05:33:34.822Z,19.7
2023-09-06T05:39:11.990Z,20.7
2023-09-06T05:45:05.741Z,21.7
2023-09-06T05:51:19.332Z,22.9
2023-09-06T05:57:14.008Z,24
2023-09-06T06:03:06.093Z,24.9
2023-09-06T06:08:57.596Z,25.9
2023-09-06T06:15:01.064Z,27.1
2023-09-06T06:21:01.046Z,28.1
2023-09-06T06:26:53.008Z,29.6
2023-09-06T06:32:47.537Z,31.3
2023-09-06T06:38:41.817Z,32.4
2023-09-06T06:44:33.629Z,34.4
2023-09-06T06:50:27.030Z,35.4
2023-09-06T06:56:23.181Z,35.9
2023-09-06T07:02:14.993Z,36.4
2023-09-06T07:08:07.787Z,38.8
2023-09-06T07:14:00.395Z,47.8
2023-09-06T07:19:57.696Z,51.1
2023-09-06T07:25:49.199Z,56.5
2023-09-06T07:31:40.938Z,54.8
2023-09-06T07:37:34.831Z,44.5
2023-09-06T07:43:27.728Z,44.7
2023-09-06T07:49:21.450Z,45.7
2023-09-06T07:55:14.198Z,49.1
2023-09-06T08:01:19.383Z,51.4
2023-09-06T08:07:14.237Z,53.2
2023-09-06T08:13:06.575Z,56.9
2023-09-06T08:18:47.064Z,57.6
2023-09-06T08:24:52.932Z,51.8
2023-09-06T08:30:46.269Z,54
2023-09-06T08:36:41.233Z,55.4
2023-09-06T08:42:33.394Z,56.1
2023-09-06T08:48:10.519Z,56.6
2023-09-06T08:59:43.618Z,52.3
2023-09-06T09:05:53.707Z,51
2023-09-06T09:11:46.700Z,64
2023-09-06T09:17:49.639Z,54.6
2023-09-06T09:23:50.620Z,48.9
2023-09-06T09:29:43.837Z,50.9
2023-09-06T09:35:37.208Z,52.2
2023-09-06T09:41:33.428Z,52.9
2023-09-06T09:47:52.916Z,52.9
2023-09-06T09:53:56.597Z,52.6
2023-09-06T10:05:36.363Z,50.9
2023-09-06T10:11:45.034Z,49.6
2023-09-06T10:17:40.133Z,48.2
2023-09-06T10:23:49.483Z,46.4
2023-09-06T10:29:54.231Z,44.9
2023-09-06T10:35:53.348Z,43.5
2023-09-06T10:41:45.776Z,42.6
2023-09-06T10:47:38.153Z,41.9
2023-09-06T10:53:34.765Z,41.5
2023-09-06T10:59:11.997Z,41.5
2023-09-06T11:05:03.893Z,41.5
2023-09-06T11:11:15.539Z,41
2023-09-06T11:17:08.002Z,40.3
2023-09-06T11:23:01.025Z,39.4
2023-09-06T11:28:38.068Z,38.3
2023-09-06T11:34:31.590Z,37.4
2023-09-06T11:40:22.920Z,37.4
2023-09-06T11:46:14.749Z,39.8
2023-09-06T11:52:08.165Z,44.4
2023-09-06T11:58:17.282Z,47
2023-09-06T12:04:10.243Z,45.8
2023-09-06T12:10:18.990Z,44.3
2023-09-06T12:16:11.704Z,42.4
2023-09-06T12:21:51.963Z,40.8
2023-09-06T12:27:28.664Z,39.4
2023-09-06T12:33:17.618Z,38.5
2023-09-06T12:39:11.085Z,37.8
2023-09-06T12:45:06.049Z,37.3
2023-09-06T12:50:58.625Z,36.8
2023-09-06T12:56:53.982Z,37
2023-09-06T13:02:47.050Z,37.1
2023-09-06T13:08:39.780Z,36.6
2023-09-06T13:14:34.898Z,36
2023-09-06T13:20:13.921Z,35.4
2023-09-06T13:26:05.921Z,34.8
2023-09-06T13:31:57.773Z,33.9
2023-09-06T13:37:52.062Z,32.9
2023-09-06T13:43:46.174Z,32
2023-09-06T13:49:39.772Z,31.2
2023-09-06T13:55:32.667Z,30.5
2023-09-06T14:01:09.074Z,29.9
2023-09-06T14:07:02.695Z,29.6
2023-09-06T14:12:54.815Z,29.2
2023-09-06T14:18:47.346Z,28.8
2023-09-06T14:24:24.212Z,28.5
2023-09-06T14:30:17.798Z,28.1
2023-09-06T14:36:10.446Z,27.9
2023-09-06T14:47:40.360Z,27.9
2023-09-06T14:53:31.992Z,28.4
2023-09-06T14:59:28.454Z,29.4
2023-09-06T15:05:09.268Z,29.8
2023-09-06T15:11:22.307Z,29.8
2023-09-06T15:16:57.845Z,29.7
2023-09-06T15:23:02.978Z,29.5
2023-09-06T15:28:54.297Z,29.4
2023-09-06T15:34:46.191Z,29.1
2023-09-06T15:40:37.834Z,28.9
2023-09-06T15:46:28.942Z,28.8
2023-09-06T15:52:21.287Z,28.6
2023-09-06T15:58:13.579Z,28.4
2023-09-06T16:04:24.939Z,28.1
2023-09-06T16:10:18.071Z,27.7
2023-09-06T16:16:13.361Z,27.3
2023-09-06T16:22:07.787Z,26.9
2023-09-06T16:27:58.870Z,26.4
2023-09-06T16:33:53.415Z,25.9
2023-09-06T16:39:46.775Z,25.4
2023-09-06T16:45:38.114Z,24.9
2023-09-06T16:51:32.849Z,24.4
2023-09-06T16:57:24.882Z,24
2023-09-06T17:03:18.266Z,23.6
2023-09-06T17:09:10.449Z,23.3
2023-09-06T17:15:01.218Z,22.9
2023-09-06T17:20:55.372Z,22.6
2023-09-06T17:26:58.018Z,22.3
2023-09-06T17:32:49.091Z,22.1
2023-09-06T17:38:25.045Z,21.9
2023-09-06T17:44:16.748Z,21.8
2023-09-06T17:50:09.578Z,21.5
2023-09-06T17:56:02.007Z,21.3
2023-09-06T18:01:57.268Z,21.2
2023-09-06T18:07:53.213Z,21
2023-09-06T18:13:44.937Z,20.9
2023-09-06T18:19:37.724Z,20.8
2023-09-06T18:25:31.848Z,20.8
2023-09-06T18:31:22.474Z,20.8
2023-09-06T18:36:59.643Z,20.7
2023-09-06T18:42:50.702Z,20.6
2023-09-06T18:48:28.597Z,20.6
2023-09-06T18:54:21.110Z,20.5
2023-09-06T19:00:24.323Z,20.5
2023-09-06T19:06:19.068Z,20.4
2023-09-06T19:12:11.647Z,20.4
2023-09-06T19:18:05.292Z,20.4
2023-09-06T19:23:56.496Z,20.3
2023-09-06T19:29:49.687Z,20.3
2023-09-06T19:35:46.340Z,20.3
2023-09-06T19:41:37.701Z,20.3
2023-09-06T19:47:14.793Z,20.3
2023-09-06T19:53:24.461Z,20.2
2023-09-06T19:59:15.509Z,20.2
2023-09-06T20:05:10.728Z,20.1
2023-09-06T20:10:47.542Z,20.1
2023-09-06T20:16:25.650Z,20.1
2023-09-06T20:22:17.704Z,20.1
2023-09-06T20:28:08.941Z,20.1
2023-09-06T20:34:01.078Z,20.1
2023-09-06T20:39:53.480Z,20
2023-09-06T20:45:45.073Z,20
2023-09-06T20:51:37.720Z,19.9
2023-09-06T20:57:29.514Z,19.9
2023-09-06T21:03:23.116Z,19.9
2023-09-06T21:09:00.750Z,19.8
2023-09-06T21:14:37.098Z,19.8
2023-09-06T21:20:15.714Z,19.8
2023-09-06T21:26:06.759Z,19.8
2023-09-06T21:32:09.677Z,19.7
2023-09-06T21:38:01.583Z,19.8
2023-09-06T21:44:07.062Z,19.7
2023-09-06T21:50:00.607Z,19.7
2023-09-06T21:55:51.897Z,19.6
2023-09-06T22:01:59.323Z,19.6
2023-09-06T22:07:52.858Z,19.6
2023-09-06T22:13:44.384Z,19.6
2023-09-06T22:19:36.112Z,19.5
2023-09-06T22:25:28.297Z,19.4
2023-09-06T22:31:20.799Z,19.4
2023-09-06T22:37:12.699Z,19.4
2023-09-06T22:42:49.736Z,19.4
2023-09-06T22:48:57.000Z,19.4
2023-09-06T22:54:49.125Z,19.3
2023-09-06T23:00:41.736Z,19.3
2023-09-06T23:06:37.586Z,19.3
2023-09-06T23:12:14.452Z,19.3
2023-09-06T23:17:51.864Z,19.2
2023-09-06T23:23:44.363Z,19.2
2023-09-06T23:29:21.204Z,19.2
2023-09-06T23:35:14.564Z,19.2
2023-09-06T23:41:07.462Z,19.2
2023-09-06T23:46:43.593Z,19.2
2023-09-06T23:52:21.269Z,19.2
2023-09-06T23:58:09.989Z,19.1
